createdAt,value
2019-02-24T00:01:12.143Z,7.00
2019-02-24T00:03:40.942Z,7.73
2019-02-24T00:06:10.429Z,7.50
2019-02-24T00:08:39.275Z,8.00
2019-02-24T00:11:09.729Z,7.50
2019-02-24T00:13:38.471Z,7.63
2019-02-24T00:16:07.128Z,7.53
2019-02-24T00:18:35.782Z,7.43
2019-02-24T00:21:04.522Z,7.23
2019-02-24T00:23:33.299Z,7.60
2019-02-24T00:26:02.067Z,8.17
2019-02-24T00:28:30.803Z,7.60
2019-02-24T00:30:59.505Z,7.37
2019-02-24T00:33:28.279Z,6.70
2019-02-24T00:35:56.939Z,6.77
2019-02-24T00:38:25.609Z,6.60
2019-02-24T00:40:54.320Z,6.73
2019-02-24T00:43:22.984Z,7.33
2019-02-24T00:45:51.598Z,6.47
2019-02-24T00:48:20.285Z,6.47
2019-02-24T00:50:48.941Z,6.63
2019-02-24T00:53:17.595Z,6.33
2019-02-24T00:55:46.313Z,7.30
2019-02-24T00:58:16.422Z,6.37
2019-02-24T01:00:45.255Z,5.67
2019-02-24T01:03:15.518Z,6.63
2019-02-24T01:05:44.273Z,5.93
2019-02-24T01:08:12.937Z,5.47
2019-02-24T01:10:47.667Z,5.33
2019-02-24T01:13:16.785Z,4.97
2019-02-24T01:15:45.476Z,5.67
2019-02-24T01:18:14.080Z,5.67
2019-02-24T01:20:42.720Z,5.83
2019-02-24T01:23:11.286Z,5.60
2019-02-24T01:25:39.907Z,5.73
2019-02-24T01:28:08.521Z,5.47
2019-02-24T01:30:37.258Z,5.33
2019-02-24T01:33:05.850Z,4.73
2019-02-24T01:35:34.523Z,5.03
2019-02-24T01:38:03.121Z,5.70
2019-02-24T01:40:31.751Z,5.50
2019-02-24T01:43:00.366Z,5.10
2019-02-24T01:45:29.168Z,5.50
2019-02-24T01:47:57.883Z,4.60
2019-02-24T01:50:26.688Z,5.47
2019-02-24T01:52:55.272Z,5.20
2019-02-24T01:55:23.916Z,4.60
2019-02-24T01:57:52.548Z,4.50
2019-02-24T02:00:21.227Z,4.80
2019-02-24T02:02:49.833Z,5.20
2019-02-24T02:05:18.452Z,5.23
2019-02-24T02:07:47.253Z,5.70
2019-02-24T02:10:15.997Z,5.70
2019-02-24T02:12:44.619Z,5.57
2019-02-24T02:15:13.386Z,5.50
2019-02-24T02:17:42.084Z,5.30
2019-02-24T02:20:10.903Z,6.67
2019-02-24T02:22:39.625Z,5.70
2019-02-24T02:25:14.316Z,5.67
2019-02-24T02:27:45.143Z,6.23
2019-02-24T02:30:14.908Z,6.60
2019-02-24T02:55:13.450Z,7.00
2019-02-24T02:57:42.076Z,6.90
2019-02-24T03:00:30.675Z,7.53
2019-02-24T03:02:59.366Z,6.57
2019-02-24T03:05:28.046Z,6.80
2019-02-24T03:07:58.401Z,6.67
2019-02-24T03:10:26.999Z,6.77
2019-02-24T03:12:55.738Z,6.20
2019-02-24T03:15:24.412Z,6.47
2019-02-24T03:17:53.085Z,5.83
2019-02-24T03:20:21.657Z,5.70
2019-02-24T03:22:50.270Z,6.20
2019-02-24T03:25:18.863Z,6.37
2019-02-24T03:27:47.492Z,5.60
2019-02-24T03:30:16.152Z,5.77
2019-02-24T03:32:44.772Z,5.70
2019-02-24T03:35:13.525Z,5.80
2019-02-24T03:37:42.196Z,5.80
2019-02-24T03:40:10.904Z,5.73
2019-02-24T03:42:39.521Z,6.00
2019-02-24T03:45:10.031Z,4.87
2019-02-24T03:47:38.622Z,5.17
2019-02-24T03:50:08.595Z,6.00
2019-02-24T03:52:37.391Z,5.37
2019-02-24T03:55:06.013Z,5.80
2019-02-24T03:57:35.278Z,6.27
2019-02-24T04:03:09.762Z,5.60
2019-02-24T04:11:15.728Z,5.47
2019-02-24T04:13:53.598Z,5.37
2019-02-24T04:19:03.621Z,6.03
2019-02-24T04:30:12.338Z,5.47
2019-02-24T07:02:49.028Z,6.90
2019-02-24T07:05:17.805Z,6.50
2019-02-24T07:07:46.462Z,7.30
2019-02-24T07:10:15.135Z,6.70
2019-02-24T07:12:43.799Z,5.67
2019-02-24T07:15:16.469Z,6.07
2019-02-24T07:17:45.693Z,6.10
2019-02-24T07:35:27.706Z,6.60
2019-02-24T07:37:56.316Z,6.60
2019-02-24T07:40:24.977Z,6.57
2019-02-24T07:42:53.675Z,6.33
2019-02-24T07:45:22.302Z,6.33
2019-02-24T07:47:50.916Z,6.23
2019-02-24T07:50:19.596Z,6.13
2019-02-24T07:52:48.312Z,7.20
2019-02-24T07:55:16.940Z,6.50
2019-02-24T07:57:45.565Z,6.17
2019-02-24T08:00:15.230Z,6.43
2019-02-24T08:02:45.566Z,6.23
2019-02-24T08:05:14.154Z,6.40
2019-02-24T08:07:42.785Z,6.70
2019-02-24T08:10:11.382Z,6.10
2019-02-24T08:12:39.954Z,6.00
2019-02-24T08:15:09.466Z,6.30
2019-02-24T08:17:38.009Z,6.73
2019-02-24T08:20:08.796Z,6.20
2019-02-24T08:22:37.344Z,6.77
2019-02-24T08:25:07.146Z,6.43
2019-02-24T08:27:35.699Z,6.50
2019-02-24T08:30:06.583Z,5.47
2019-02-24T08:32:35.134Z,6.10
2019-02-24T08:35:03.882Z,5.37
2019-02-24T08:37:32.424Z,6.00
2019-02-24T08:40:00.990Z,5.80
2019-02-24T08:42:29.540Z,5.63
2019-02-24T08:44:58.102Z,5.57
2019-02-24T08:47:26.647Z,5.53
2019-02-24T08:49:55.225Z,5.07
2019-02-24T08:52:23.839Z,5.43
2019-02-24T08:54:52.411Z,6.40
2019-02-24T08:57:20.949Z,5.80
2019-02-24T08:59:49.445Z,5.33
2019-02-24T09:02:17.909Z,5.80
2019-02-24T09:04:46.402Z,4.73
2019-02-24T09:07:14.945Z,5.17
2019-02-24T09:09:43.513Z,4.97
2019-02-24T09:12:12.062Z,5.47
2019-02-24T09:14:40.566Z,5.80
2019-02-24T09:17:10.050Z,5.83
2019-02-24T09:19:38.599Z,5.03
2019-02-24T09:22:07.176Z,5.37
2019-02-24T09:24:35.715Z,5.50
2019-02-24T09:27:04.357Z,5.63
2019-02-24T09:29:32.915Z,4.77
2019-02-24T09:32:01.494Z,5.60
2019-02-24T09:34:30.038Z,5.17
2019-02-24T09:36:58.611Z,5.27
2019-02-24T09:39:27.160Z,4.80
2019-02-24T09:41:55.732Z,5.17
2019-02-24T09:44:24.213Z,4.53
2019-02-24T09:46:52.787Z,4.80
2019-02-24T09:49:21.333Z,4.80
2019-02-24T09:51:49.911Z,4.70
2019-02-24T09:54:18.465Z,4.80
2019-02-24T09:56:47.038Z,4.80
2019-02-24T09:59:15.594Z,4.73
2019-02-24T10:01:44.093Z,4.93
2019-02-24T10:04:12.659Z,4.63
2019-02-24T10:06:41.225Z,4.60
2019-02-24T10:09:09.772Z,4.30
2019-02-24T10:11:38.354Z,4.33
2019-02-24T10:14:06.918Z,4.20
2019-02-24T10:16:35.491Z,4.73
2019-02-24T10:19:04.047Z,3.70
2019-02-24T10:21:32.639Z,4.00
2019-02-24T10:24:01.186Z,4.20
2019-02-24T10:26:29.770Z,4.30
2019-02-24T10:28:58.329Z,3.90
2019-02-24T10:31:26.902Z,4.40
2019-02-24T10:33:55.458Z,4.27
2019-02-24T10:36:24.146Z,4.17
2019-02-24T10:38:55.410Z,4.10
2019-02-24T10:41:24.086Z,4.57
2019-02-24T10:43:52.735Z,4.80
2019-02-24T10:46:21.287Z,4.20
2019-02-24T10:48:49.867Z,4.37
2019-02-24T10:51:18.432Z,3.90
2019-02-24T10:53:50.736Z,3.90
2019-02-24T10:56:19.675Z,4.00
2019-02-24T10:58:48.254Z,3.90
2019-02-24T11:01:16.807Z,3.77
2019-02-24T11:03:45.389Z,4.17
2019-02-24T11:06:14.067Z,3.67
2019-02-24T11:08:42.666Z,3.27
2019-02-24T11:11:11.205Z,3.57
2019-02-24T11:13:39.875Z,3.30
2019-02-24T11:16:08.434Z,3.93
2019-02-24T11:18:37.032Z,3.50
2019-02-24T11:21:05.744Z,3.20
2019-02-24T11:23:34.388Z,3.80
2019-02-24T11:26:02.943Z,3.33
2019-02-24T11:28:31.598Z,3.33
2019-02-24T11:31:00.158Z,3.73
2019-02-24T11:33:28.742Z,3.20
2019-02-24T11:35:57.287Z,3.27
2019-02-24T11:38:25.874Z,3.30
2019-02-24T11:40:54.501Z,3.80
2019-02-24T11:43:23.074Z,2.87
2019-02-24T11:45:51.666Z,3.07
2019-02-24T11:48:20.236Z,3.93
2019-02-24T11:50:48.786Z,3.60
2019-02-24T11:53:17.450Z,3.67
2019-02-24T11:55:46.084Z,3.60
2019-02-24T11:58:14.633Z,3.40
2019-02-24T12:00:43.274Z,3.40
2019-02-24T12:03:11.824Z,3.43
2019-02-24T12:05:40.406Z,3.47
2019-02-24T12:08:08.957Z,3.37
2019-02-24T12:10:37.525Z,3.73
2019-02-24T12:13:06.175Z,3.20
2019-02-24T12:15:34.742Z,3.30
2019-02-24T12:18:03.297Z,3.17
2019-02-24T12:20:31.869Z,3.47
2019-02-24T12:23:00.345Z,3.67
2019-02-24T12:25:28.986Z,3.70
2019-02-24T12:27:57.529Z,3.70
2019-02-24T12:30:26.110Z,3.53
2019-02-24T12:32:54.666Z,3.87
2019-02-24T12:35:23.230Z,3.83
2019-02-24T12:37:51.794Z,3.73
2019-02-24T12:40:20.357Z,4.03
2019-02-24T12:42:48.846Z,3.33
2019-02-24T12:45:17.426Z,3.63
2019-02-24T12:47:45.993Z,3.87
2019-02-24T12:50:16.575Z,3.53
2019-02-24T12:52:45.190Z,3.80
2019-02-24T12:55:13.831Z,3.93
2019-02-24T12:57:43.313Z,3.90
2019-02-24T13:00:20.527Z,3.60
2019-02-24T13:02:49.138Z,4.03
2019-02-24T13:05:17.709Z,4.13
2019-02-24T13:07:46.833Z,4.00
2019-02-24T13:10:16.740Z,4.07
2019-02-24T13:12:45.288Z,3.83
2019-02-24T13:15:14.015Z,4.27
2019-02-24T13:17:42.625Z,4.10
2019-02-24T13:20:11.765Z,4.00
2019-02-24T13:22:40.383Z,4.00
2019-02-24T13:25:11.197Z,4.07
2019-02-24T13:27:39.753Z,3.77
2019-02-24T13:30:13.370Z,3.50
2019-02-24T13:32:41.931Z,4.57
2019-02-24T13:35:10.606Z,3.90
2019-02-24T13:37:39.225Z,3.23
2019-02-24T13:40:13.277Z,4.00
2019-02-24T13:42:41.891Z,3.40
2019-02-24T13:45:18.822Z,3.53
2019-02-24T13:47:47.373Z,4.07
2019-02-24T13:50:16.323Z,4.07
2019-02-24T13:52:44.874Z,3.67
2019-02-24T13:55:14.563Z,3.77
2019-02-24T13:57:43.198Z,3.63
2019-02-24T14:00:22.149Z,3.60
2019-02-24T14:02:50.722Z,3.97
2019-02-24T14:05:19.406Z,3.53
2019-02-24T14:07:47.980Z,3.80
2019-02-24T14:10:16.672Z,3.70
2019-02-24T14:12:45.240Z,3.47
2019-02-24T14:15:14.920Z,3.93
2019-02-24T14:17:43.419Z,3.73
2019-02-24T14:20:19.299Z,4.03
2019-02-24T14:22:47.793Z,4.03
2019-02-24T14:25:17.000Z,3.80
2019-02-24T14:27:45.646Z,3.97
2019-02-24T14:30:17.757Z,3.93
2019-02-24T14:32:46.343Z,3.70
2019-02-24T14:35:17.289Z,3.87
2019-02-24T14:37:45.864Z,2.87
2019-02-24T14:40:14.485Z,3.30
2019-02-24T14:42:43.092Z,3.77
2019-02-24T14:45:14.084Z,4.00
2019-02-24T14:47:42.679Z,3.30
2019-02-24T14:50:11.595Z,3.73
2019-02-24T14:52:40.167Z,4.07
2019-02-24T14:55:10.965Z,3.80
2019-02-24T14:57:39.554Z,4.10
2019-02-24T15:00:15.893Z,4.20
2019-02-24T15:02:44.492Z,3.80
2019-02-24T15:05:16.640Z,4.70
2019-02-24T15:07:45.440Z,4.03
2019-02-24T15:10:21.847Z,4.07
2019-02-24T15:12:50.429Z,3.83
2019-02-24T15:15:32.516Z,3.63
2019-02-24T15:17:56.673Z,4.10
2019-02-24T15:20:25.372Z,3.77
2019-02-24T15:22:53.876Z,4.03
2019-02-24T15:25:22.485Z,3.20
2019-02-24T15:27:50.990Z,3.63
2019-02-24T15:30:31.406Z,3.80
2019-02-24T15:32:59.977Z,3.57
2019-02-24T15:35:28.589Z,4.10
2019-02-24T15:37:57.227Z,3.77
2019-02-24T15:40:25.845Z,3.50
2019-02-24T15:42:54.419Z,3.80
2019-02-24T15:45:23.043Z,3.93
2019-02-24T15:47:51.613Z,3.40
2019-02-24T15:50:20.293Z,3.83
2019-02-24T15:52:48.797Z,3.50
2019-02-24T15:55:17.989Z,3.77
2019-02-24T15:57:46.494Z,3.50
2019-02-24T16:00:22.967Z,3.47
2019-02-24T16:03:00.729Z,3.80
2019-02-24T16:05:21.870Z,3.83
2019-02-24T16:07:50.444Z,3.90
2019-02-24T16:10:20.131Z,3.70
2019-02-24T16:12:48.705Z,3.57
2019-02-24T16:15:22.979Z,3.67
2019-02-24T16:17:51.561Z,3.80
2019-02-24T16:20:31.409Z,3.70
2019-02-24T16:22:59.910Z,3.57
2019-02-24T16:25:28.450Z,3.30
2019-02-24T16:27:57.117Z,3.67
2019-02-24T16:30:25.601Z,3.27
2019-02-24T16:32:54.075Z,3.57
2019-02-24T16:35:22.647Z,3.53
2019-02-24T16:37:51.271Z,3.17
2019-02-24T16:40:22.440Z,3.80
2019-02-24T16:42:50.990Z,3.20
2019-02-24T16:45:19.637Z,3.50
2019-02-24T16:47:48.176Z,3.40
2019-02-24T16:50:18.761Z,3.43
2019-02-24T16:52:47.427Z,3.27
2019-02-24T16:55:16.958Z,3.57
2019-02-24T16:57:45.427Z,3.50
2019-02-24T17:00:25.616Z,3.33
2019-02-24T17:02:54.160Z,3.33
2019-02-24T17:05:22.803Z,3.47
2019-02-24T17:07:51.424Z,3.57
2019-02-24T17:10:29.895Z,3.47
2019-02-24T17:12:58.626Z,3.67
2019-02-24T17:15:27.258Z,4.20
2019-02-24T17:17:55.800Z,3.50
2019-02-24T17:20:28.574Z,3.73
2019-02-24T17:22:57.127Z,3.10
2019-02-24T17:25:25.694Z,3.70
2019-02-24T17:27:54.248Z,3.80
2019-02-24T17:30:23.856Z,4.23
2019-02-24T17:32:52.622Z,3.80
2019-02-24T17:35:21.185Z,4.00
2019-02-24T17:37:49.659Z,4.30
2019-02-24T17:40:22.454Z,4.30
2019-02-24T17:42:51.009Z,4.37
2019-02-24T17:45:19.645Z,4.70
2019-02-24T17:47:48.271Z,4.37
2019-02-24T17:50:17.485Z,5.00
2019-02-24T17:52:46.025Z,4.23
2019-02-24T17:55:15.742Z,4.60
2019-02-24T17:57:44.294Z,4.60
2019-02-24T18:00:31.551Z,4.90
2019-02-24T18:03:01.945Z,5.07
2019-02-24T18:05:30.582Z,4.90
2019-02-24T18:07:59.156Z,4.27
2019-02-24T18:10:27.724Z,4.07
2019-02-24T18:12:56.262Z,4.00
2019-02-24T18:15:24.836Z,3.73
2019-02-24T18:17:53.383Z,4.37
2019-02-24T18:20:22.410Z,5.07
2019-02-24T18:22:50.985Z,4.20
2019-02-24T18:25:19.550Z,3.73
2019-02-24T18:27:48.165Z,3.80
2019-02-24T18:30:24.911Z,4.17
2019-02-24T18:32:53.501Z,3.77
2019-02-24T18:35:22.162Z,4.40
2019-02-24T18:37:50.802Z,4.30
2019-02-24T18:40:19.442Z,4.27
2019-02-24T18:42:48.036Z,3.77
2019-02-24T18:45:16.611Z,4.07
2019-02-24T18:47:45.197Z,3.97
2019-02-24T18:50:20.042Z,3.83
2019-02-24T18:52:48.699Z,3.70
2019-02-24T18:55:17.274Z,4.03
2019-02-24T18:57:45.997Z,4.03
2019-02-24T19:00:17.950Z,4.10
2019-02-24T19:02:46.590Z,4.00
2019-02-24T19:05:15.235Z,3.60
2019-02-24T19:07:43.841Z,3.57
2019-02-24T19:10:15.097Z,3.90
2019-02-24T19:12:43.711Z,4.00
2019-02-24T19:15:17.837Z,4.30
2019-02-24T19:17:46.678Z,3.80
2019-02-24T19:20:17.753Z,3.63
2019-02-24T19:22:46.352Z,3.70
2019-02-24T19:25:15.075Z,3.87
2019-02-24T19:27:43.741Z,4.10
2019-02-24T19:30:14.944Z,4.13
2019-02-24T19:32:43.632Z,3.83
2019-02-24T19:35:13.630Z,4.20
2019-02-24T19:37:42.207Z,4.40
2019-02-24T19:40:17.830Z,4.00
2019-02-24T19:42:46.466Z,4.67
2019-02-24T19:45:19.531Z,4.23
2019-02-24T19:47:48.104Z,4.63
2019-02-24T19:50:17.851Z,4.07
2019-02-24T19:52:46.591Z,4.20
2019-02-24T19:55:16.267Z,4.70
2019-02-24T19:57:44.985Z,4.20
2019-02-24T20:00:23.542Z,4.63
2019-02-24T20:02:52.174Z,3.80
2019-02-24T20:05:21.199Z,3.87
2019-02-24T20:07:49.894Z,4.37
2019-02-24T20:10:23.759Z,4.20
2019-02-24T20:12:52.447Z,3.70
2019-02-24T20:15:21.963Z,4.00
2019-02-24T20:17:50.450Z,4.03
2019-02-24T20:20:19.278Z,4.63
2019-02-24T20:22:48.065Z,4.03
2019-02-24T20:25:19.150Z,4.03
2019-02-24T20:27:47.733Z,4.90
2019-02-24T20:30:27.393Z,3.80
2019-02-24T20:32:56.048Z,4.50
2019-02-24T20:35:24.714Z,5.00
2019-02-24T20:37:53.323Z,4.87
2019-02-24T20:40:21.975Z,5.10
2019-02-24T20:42:50.639Z,4.07
2019-02-24T20:45:20.579Z,4.20
2019-02-24T20:47:49.278Z,4.83
2019-02-24T20:50:20.040Z,4.17
2019-02-24T20:52:48.658Z,4.63
2019-02-24T20:55:17.318Z,4.63
2019-02-24T20:57:45.998Z,4.87
2019-02-24T21:00:20.386Z,3.97
2019-02-24T21:02:48.940Z,4.20
2019-02-24T21:05:17.593Z,4.20
2019-02-24T21:07:46.082Z,4.50
2019-02-24T21:10:14.755Z,4.50
2019-02-24T21:12:43.322Z,4.33
2019-02-24T21:15:14.219Z,4.80
2019-02-24T21:17:42.820Z,4.70
2019-02-24T21:20:17.254Z,4.57
2019-02-24T21:22:45.846Z,3.97
2019-02-24T21:25:14.482Z,4.47
2019-02-24T21:27:43.067Z,4.70
2019-02-24T21:30:14.513Z,4.00
2019-02-24T21:32:43.089Z,3.90
2019-02-24T21:35:12.175Z,5.07
2019-02-24T21:37:40.739Z,3.93
2019-02-24T21:40:16.855Z,5.00
2019-02-24T21:42:45.451Z,4.10
2019-02-24T21:45:19.528Z,4.37
2019-02-24T21:47:48.101Z,4.37
2019-02-24T21:50:20.533Z,5.00
2019-02-24T21:52:49.374Z,3.83
2019-02-24T21:55:18.064Z,4.30
2019-02-24T21:57:46.656Z,3.93
2019-02-24T22:00:24.266Z,4.47
2019-02-24T22:02:52.911Z,4.43
2019-02-24T22:05:21.530Z,4.13
2019-02-24T22:07:50.136Z,4.23
2019-02-24T22:10:23.448Z,4.50
2019-02-24T22:13:04.099Z,4.30
2019-02-24T22:18:32.683Z,4.83
2019-02-24T22:21:03.513Z,4.67
2019-02-24T22:23:34.984Z,4.77
2019-02-24T22:26:05.145Z,4.40
2019-02-24T22:28:38.295Z,4.20
2019-02-24T22:31:10.182Z,4.03
2019-02-24T22:33:41.260Z,4.20
2019-02-24T22:39:06.624Z,4.50
2019-02-24T22:41:40.280Z,3.83
2019-02-24T22:44:09.058Z,4.10
2019-02-24T22:46:46.797Z,4.37
2019-02-24T22:49:23.494Z,3.80
2019-02-24T22:51:57.054Z,4.43
2019-02-24T22:54:25.904Z,4.23
2019-02-24T22:56:57.863Z,4.30
2019-02-24T22:59:31.301Z,4.20
2019-02-24T23:02:05.957Z,4.90
2019-02-24T23:04:36.776Z,3.90
2019-02-24T23:07:06.592Z,4.47
2019-02-24T23:09:35.786Z,4.37
2019-02-24T23:12:07.022Z,4.10
2019-02-24T23:14:38.131Z,3.83
2019-02-24T23:20:05.479Z,4.03
2019-02-24T23:22:36.407Z,4.53
2019-02-24T23:25:07.974Z,3.63
2019-02-24T23:27:43.788Z,4.20
2019-02-24T23:30:18.351Z,4.53
2019-02-24T23:32:54.041Z,3.60
2019-02-24T23:35:27.958Z,4.53
2019-02-24T23:37:59.244Z,4.07
2019-02-24T23:40:33.077Z,4.13
2019-02-24T23:43:01.575Z,4.00
2019-02-24T23:45:31.986Z,4.43
2019-02-24T23:48:03.805Z,4.20
2019-02-24T23:50:33.868Z,3.90
2019-02-24T23:53:15.670Z,3.50
2019-02-24T23:55:45.627Z,4.17
2019-02-24T23:58:18.124Z,4.30
